Time,TemperatureF,DewpointF,PressureIn,WindDirection,WindDirectionDegrees,WindSpeedMPH,WindSpeedGustMPH,Humidity,HourlyPrecipIn,Conditions,Clouds,dailyrainin,SoftwareType,DateUTC
2013-08-05 00:02:00,58.0,53.0,-100.00,WNW,290,6.0,7.0,82,-99.99,,,-99.99,,2013-08-05 06:02:00,
2013-08-05 00:12:00,58.0,53.0,-100.00,WNW,290,6.0,7.0,82,-99.99,,,-99.99,,2013-08-05 06:12:00,
2013-08-05 00:32:00,56.0,50.0,-100.00,West,265,1.0,3.0,82,-99.99,,,-99.99,,2013-08-05 06:32:00,
2013-08-05 00:52:00,56.0,51.0,-100.00,West,275,2.0,6.0,82,-99.99,,,-99.99,,2013-08-05 06:52:00,
2013-08-05 01:12:00,57.0,52.0,-100.00,WNW,285,4.0,6.0,83,-99.99,,,-99.99,,2013-08-05 07:12:00,
2013-08-05 01:53:00,59.0,54.0,-100.00,West,275,6.0,9.0,83,-99.99,,,-99.99,,2013-08-05 07:53:00,
2013-08-05 02:02:00,58.0,53.0,-100.00,West,275,7.0,7.0,82,-99.99,,,-99.99,,2013-08-05 08:02:00,
2013-08-05 02:12:00,58.0,53.0,-100.00,West,275,7.0,7.0,82,-99.99,,,-99.99,,2013-08-05 08:12:00,
2013-08-05 02:54:00,58.0,53.0,-100.00,West,275,6.0,7.0,82,-99.99,,,-99.99,,2013-08-05 08:54:00,
2013-08-05 03:16:00,57.0,52.0,-100.00,West,270,5.0,7.0,82,-99.99,,,-99.99,,2013-08-05 09:16:00,
2013-08-05 04:07:00,54.0,49.0,-100.00,ENE,75,0.0,4.0,82,-99.99,,,-99.99,,2013-08-05 10:07:00,
2013-08-05 04:53:00,53.0,47.0,-100.00,ENE,60,0.0,2.0,83,-99.99,,,-99.99,,2013-08-05 10:53:00,
2013-08-05 05:34:00,53.0,48.0,-100.00,NW,320,0.0,0.0,83,-99.99,,,-99.99,,2013-08-05 11:34:00,
2013-08-05 05:58:00,51.0,46.0,-100.00,SW,230,0.0,0.0,83,-99.99,,,-99.99,,2013-08-05 11:58:00,
2013-08-05 06:06:00,51.0,46.0,-100.00,WSW,255,0.0,1.0,83,-99.99,,,-99.99,,2013-08-05 12:06:00,
2013-08-05 06:15:00,51.0,46.0,-100.00,WSW,255,0.0,1.0,83,-99.99,,,-99.99,,2013-08-05 12:15:00,
2013-08-05 07:00:00,55.0,51.0,-100.00,West,260,2.0,4.0,83,-99.99,,,-99.99,,2013-08-05 13:00:00,
2013-08-05 07:35:00,62.0,57.0,-100.00,WSW,255,4.0,6.0,83,-99.99,,,-99.99,,2013-08-05 13:35:00,
2013-08-05 08:15:00,65.0,55.0,-100.00,WSW,250,6.0,7.0,69,-99.99,,,-99.99,,2013-08-05 14:15:00,
2013-08-05 08:54:00,69.0,51.0,-100.00,West,280,3.0,4.0,51,-99.99,,,-99.99,,2013-08-05 14:54:00,
2013-08-05 09:34:00,70.0,50.0,-100.00,WNW,290,4.0,7.0,48,-99.99,,,-99.99,,2013-08-05 15:34:00,
2013-08-05 09:58:00,72.0,49.0,-100.00,WSW,250,3.0,7.0,44,-99.99,,,-99.99,,2013-08-05 15:58:00,
2013-08-05 10:06:00,73.0,50.0,-100.00,West,275,3.0,7.0,43,-99.99,,,-99.99,,2013-08-05 16:06:00,
2013-08-05 21:35:00,63.0,48.0,-100.00,NNW,335,12.0,16.0,57,-99.99,,,-99.99,,2013-08-06 03:35:00,
2013-08-05 21:52:00,66.0,47.0,-100.00,NW,315,7.0,19.0,50,-99.99,,,-99.99,,2013-08-06 03:52:00,
2013-08-05 22:33:00,59.0,46.0,-100.00,SSW,195,4.0,7.0,63,-99.99,,,-99.99,,2013-08-06 04:33:00,
2013-08-05 22:53:00,60.0,48.0,-100.00,SW,220,4.0,5.0,65,-99.99,,,-99.99,,2013-08-06 04:53:00,
2013-08-05 23:32:00,57.0,47.0,-100.00,West,260,2.0,5.0,69,-99.99,,,-99.99,,2013-08-06 05:32:00,
2013-08-05 23:53:00,59.0,49.0,-100.00,West,280,4.0,6.0,70,-99.99,,,-99.99,,2013-08-06 05:53:00,